Time;durP1;ratioP1;P1;durP2;ratioP2;P2;SDS_P1;SDS_P2;PMS_P1;PMS_P2;Temp;Humidity;BMP_temperature;BMP_pressure;BME280_temperature;BME280_humidity;BME280_pressure;Samples;Min_cycle;Max_cycle;Signal;HPM_P1;HPM_P2
2023/05/12 00:01:01;;;;;;;11.85;10.55;;;;;;;;;;4973593;28;20362;-84
2023/05/12 00:03:28;;;;;;;12.23;9.18;;;;;;;;;;4956828;28;20046;-84
2023/05/12 00:06:03;;;;;;;12.43;10.32;;;;;;;;;;4958777;28;20149;-84
2023/05/12 00:08:33;;;;;;;16.98;13.18;;;;;;;;;;4973725;28;20137;-84
2023/05/12 00:11:01;;;;;;;21.20;12.63;;;;;;;;;;4956406;28;20522;-84
2023/05/12 00:13:31;;;;;;;14.10;11.65;;;;;;;;;;4956951;28;20491;-84
2023/05/12 00:15:58;;;;;;;13.82;11.80;;;;;;;;;;4956846;28;20130;-83
2023/05/12 00:18:28;;;;;;;17.02;12.55;;;;;;;;;;4956966;28;20047;-84
2023/05/12 00:21:02;;;;;;;16.55;11.80;;;;;;;;;;4956471;28;20055;-84
2023/05/12 00:23:31;;;;;;;18.02;13.68;;;;;;;;;;4956566;28;20060;-84
2023/05/12 00:25:59;;;;;;;20.55;14.13;;;;;;;;;;4956537;28;20460;-84
2023/05/12 00:28:26;;;;;;;19.75;14.35;;;;;;;;;;4973576;28;20133;-84
2023/05/12 00:30:53;;;;;;;19.38;14.13;;;;;;;;;;4976952;28;20126;-84
2023/05/12 00:33:21;;;;;;;18.05;14.07;;;;;;;;;;4977478;28;20137;-85
2023/05/12 00:35:48;;;;;;;19.90;14.68;;;;;;;;;;4977537;28;20126;-84
2023/05/12 00:38:15;;;;;;;18.67;14.05;;;;;;;;;;4960623;28;20051;-84
2023/05/12 00:40:43;;;;;;;20.73;14.68;;;;;;;;;;4977707;28;20141;-84
2023/05/12 00:43:40;;;;;;;;;;;;;;;;;;;;;
2023/05/12 00:46:48;;;;;;;19.65;13.30;;;;;;;;;;4971782;28;20082;-85
2023/05/12 00:49:31;;;;;;;22.45;13.98;;;;;;;;;;4930125;28;20404;-85
2023/05/12 00:52:24;;;;;;;18.70;13.63;;;;;;;;;;4976008;28;20069;-85
2023/05/12 00:55:04;;;;;;;18.70;13.73;;;;;;;;;;4977419;28;20145;-84
2023/05/12 00:57:44;;;;;;;16.65;13.38;;;;;;;;;;4977398;28;20047;-84
2023/05/12 01:00:53;;;;;;;14.95;12.40;;;;;;;;;;4959783;28;20554;-84
2023/05/12 01:03:29;;;;;;;16.63;12.85;;;;;;;;;;4976906;28;20051;-84
2023/05/12 01:06:05;;;;;;;21.40;14.30;;;;;;;;;;4960097;28;20057;-84
2023/05/12 01:09:39;;;;;;;12.82;9.20;;;;;;;;;;4976947;28;20057;-84
2023/05/12 01:12:05;;;;;;;12.20;9.90;;;;;;;;;;4968749;28;20073;-83
2023/05/12 01:14:41;;;;;;;17.75;11.50;;;;;;;;;;4976680;28;20558;-84
2023/05/12 01:17:12;;;;;;;12.73;10.15;;;;;;;;;;4976806;28;20082;-85
2023/05/12 01:26:34;;;;;;;15.40;9.48;;;;;;;;;;4970478;28;20446;-84
2023/05/12 01:29:09;;;;;;;12.80;10.75;;;;;;;;;;4958737;28;20055;-84
2023/05/12 01:31:46;;;;;;;;;;;;;;;;;;;;;
2023/05/12 01:34:19;;;;;;;14.80;10.23;;;;;;;;;;4976340;28;20518;-84
2023/05/12 01:36:49;;;;;;;10.48;9.38;;;;;;;;;;4959570;28;20082;-84
2023/05/12 01:39:16;;;;;;;12.23;10.13;;;;;;;;;;4959355;28;20082;-84
2023/05/12 01:41:46;;;;;;;11.35;10.25;;;;;;;;;;4958560;28;20055;-84
2023/05/12 01:44:25;;;;;;;10.85;9.15;;;;;;;;;;4960692;28;20253;-84
2023/05/12 01:47:28;;;;;;;;;;;;;;;;;;;;;
2023/05/12 01:50:13;;;;;;;9.15;8.25;;;;;;;;;;4916215;29;20080;-84
2023/05/12 01:52:51;;;;;;;;;;;;;;;;;;;;;
2023/05/12 01:56:11;;;;;;;10.57;9.02;;;;;;;;;;4916955;29;20136;-84
2023/05/12 01:58:52;;;;;;;10.27;8.77;;;;;;;;;;4916508;29;20052;-84
2023/05/12 02:02:01;;;;;;;;;;;;;;;;;;;;;
2023/05/12 02:05:09;;;;;;;9.38;8.43;;;;;;;;;;4902737;29;20104;-83
2023/05/12 02:10:44;;;;;;;10.57;8.85;;;;;;;;;;4890080;29;20056;-84
2023/05/12 02:14:13;;;;;;;11.25;10.05;;;;;;;;;;4916361;29;20083;-84
2023/05/12 02:16:35;;;;;;;10.80;9.57;;;;;;;;;;4912435;29;20056;-84
2023/05/12 02:19:11;;;;;;;11.10;9.82;;;;;;;;;;4900796;29;20460;-84
2023/05/12 02:21:38;;;;;;;12.95;10.13;;;;;;;;;;4900733;29;20056;-84
2023/05/12 02:24:20;;;;;;;11.70;9.93;;;;;;;;;;4916056;29;20478;-84
2023/05/12 02:26:49;;;;;;;11.65;9.80;;;;;;;;;;4920435;28;20058;-84
2023/05/12 02:29:17;;;;;;;10.43;9.05;;;;;;;;;;4958649;28;20047;-85
2023/05/12 02:31:44;;;;;;;12.55;9.80;;;;;;;;;;4958786;28;20055;-84
2023/05/12 02:34:19;;;;;;;15.52;9.15;;;;;;;;;;4958237;28;20113;-85
2023/05/12 02:36:46;;;;;;;10.43;9.40;;;;;;;;;;4960194;28;20101;-84
2023/05/12 02:39:14;;;;;;;14.20;9.75;;;;;;;;;;4958570;28;20143;-85
2023/05/12 02:41:41;;;;;;;13.38;9.88;;;;;;;;;;4958670;28;20109;-85
2023/05/12 02:44:28;;;;;;;;;;;;;;;;;;;;;
2023/05/12 02:47:31;;;;;;;11.60;10.40;;;;;;;;;;4975510;28;20062;-84
2023/05/12 02:50:06;;;;;;;10.93;9.63;;;;;;;;;;4959549;28;20054;-85
2023/05/12 02:52:58;;;;;;;16.08;10.30;;;;;;;;;;4974936;28;20133;-84
2023/05/12 02:55:36;;;;;;;19.60;11.02;;;;;;;;;;4957651;28;20467;-85
2023/05/12 02:58:03;;;;;;;11.15;10.05;;;;;;;;;;4958260;28;20081;-85
2023/05/12 03:00:50;;;;;;;11.85;10.73;;;;;;;;;;4957848;28;20090;-85
2023/05/12 03:03:36;;;;;;;11.45;9.93;;;;;;;;;;4959786;28;20134;-84
2023/05/12 03:06:04;;;;;;;10.43;9.38;;;;;;;;;;4957761;28;20419;-84
2023/05/12 03:08:32;;;;;;;14.57;10.00;;;;;;;;;;4957751;28;20047;-85
2023/05/12 03:11:20;;;;;;;13.27;10.77;;;;;;;;;;4974906;28;20050;-84
2023/05/12 03:13:47;;;;;;;9.88;8.88;;;;;;;;;;4957264;28;20153;-84
2023/05/12 03:16:17;;;;;;;12.60;9.80;;;;;;;;;;4957436;28;20134;-84
2023/05/12 03:19:03;;;;;;;15.95;10.65;;;;;;;;;;4958806;28;20082;-85
2023/05/12 03:21:31;;;;;;;10.75;9.65;;;;;;;;;;4975079;28;20073;-85
2023/05/12 03:24:01;;;;;;;12.27;10.48;;;;;;;;;;4957429;28;20555;-84
2023/05/12 03:26:29;;;;;;;13.10;10.00;;;;;;;;;;4957340;28;20051;-85
2023/05/12 03:28:56;;;;;;;14.73;10.32;;;;;;;;;;4957571;28;20344;-85
2023/05/12 03:31:23;;;;;;;12.77;10.07;;;;;;;;;;4957448;28;20407;-84
2023/05/12 03:33:53;;;;;;;10.75;9.60;;;;;;;;;;4957870;28;20486;-84
2023/05/12 03:36:23;;;;;;;11.18;10.00;;;;;;;;;;4957596;28;20047;-84
2023/05/12 03:38:51;;;;;;;9.90;8.93;;;;;;;;;;4957422;28;20050;-84
2023/05/12 03:41:18;;;;;;;10.75;9.27;;;;;;;;;;4974292;28;20050;-84
2023/05/12 03:43:45;;;;;;;10.77;8.73;;;;;;;;;;4957439;28;20057;-84
2023/05/12 03:46:12;;;;;;;8.90;8.10;;;;;;;;;;4957407;28;20447;-84
2023/05/12 03:48:40;;;;;;;10.48;8.10;;;;;;;;;;4974405;28;20105;-85
2023/05/12 03:51:08;;;;;;;9.13;7.57;;;;;;;;;;4977163;28;20146;-85
2023/05/12 03:53:35;;;;;;;9.70;8.70;;;;;;;;;;4957239;28;20062;-84
2023/05/12 03:56:05;;;;;;;10.73;8.00;;;;;;;;;;4957343;28;20190;-84
2023/05/12 03:58:33;;;;;;;8.75;7.57;;;;;;;;;;4957309;28;20054;-84
2023/05/12 04:01:00;;;;;;;12.70;8.00;;;;;;;;;;4957101;28;20097;-84
2023/05/12 04:03:28;;;;;;;9.35;8.32;;;;;;;;;;4957067;28;20050;-84
2023/05/12 04:05:59;;;;;;;8.93;8.00;;;;;;;;;;4956433;28;20042;-83
2023/05/12 04:08:26;;;;;;;9.32;7.65;;;;;;;;;;4956856;28;20393;-84
2023/05/12 04:10:57;;;;;;;10.88;8.10;;;;;;;;;;4974112;28;20590;-84
2023/05/12 04:13:25;;;;;;;9.57;8.63;;;;;;;;;;4956886;28;20059;-84
2023/05/12 04:15:56;;;;;;;9.93;8.00;;;;;;;;;;4973855;28;20047;-84
2023/05/12 04:18:24;;;;;;;10.57;8.35;;;;;;;;;;4956653;28;20552;-84
2023/05/12 04:20:52;;;;;;;8.73;7.93;;;;;;;;;;4956803;28;20058;-84
2023/05/12 04:23:19;;;;;;;8.75;7.95;;;;;;;;;;4973700;28;20526;-84
2023/05/12 04:25:47;;;;;;;8.73;7.72;;;;;;;;;;4974082;28;20116;-84
2023/05/12 04:28:14;;;;;;;8.40;7.63;;;;;;;;;;4973796;28;20058;-85
2023/05/12 04:30:42;;;;;;;10.73;8.27;;;;;;;;;;4956907;28;20070;-84
2023/05/12 04:33:09;;;;;;;8.77;7.88;;;;;;;;;;4956683;28;20087;-85
2023/05/12 04:35:36;;;;;;;9.07;8.13;;;;;;;;;;4973707;28;20058;-84
2023/05/12 04:38:04;;;;;;;8.77;7.60;;;;;;;;;;4956595;28;20077;-84
2023/05/12 04:40:31;;;;;;;8.65;7.78;;;;;;;;;;4956570;28;20514;-84
2023/05/12 04:43:01;;;;;;;9.65;6.97;;;;;;;;;;4957123;28;20055;-84
2023/05/12 04:45:28;;;;;;;7.53;6.82;;;;;;;;;;4956391;28;20058;-84
2023/05/12 04:47:55;;;;;;;7.90;7.10;;;;;;;;;;4956499;28;20059;-85
2023/05/12 04:50:23;;;;;;;9.80;7.80;;;;;;;;;;4956862;28;20104;-84
2023/05/12 04:52:51;;;;;;;7.82;7.07;;;;;;;;;;4956630;28;20145;-84
2023/05/12 04:55:18;;;;;;;8.77;7.53;;;;;;;;;;4956517;28;20419;-84
2023/05/12 04:57:45;;;;;;;9.30;7.78;;;;;;;;;;4956522;28;20061;-85
2023/05/12 05:00:13;;;;;;;8.55;7.65;;;;;;;;;;4955998;28;20416;-83
2023/05/12 05:02:41;;;;;;;8.50;7.32;;;;;;;;;;4954941;28;20043;-84
2023/05/12 05:05:08;;;;;;;8.18;7.40;;;;;;;;;;4973661;28;20415;-85
2023/05/12 05:07:36;;;;;;;8.13;7.20;;;;;;;;;;4959508;28;20411;-85
2023/05/12 05:10:03;;;;;;;10.23;7.95;;;;;;;;;;4956077;28;20054;-85
2023/05/12 05:12:30;;;;;;;7.88;7.05;;;;;;;;;;4973479;28;20075;-85
2023/05/12 05:14:57;;;;;;;9.20;7.35;;;;;;;;;;4956022;28;20506;-84
2023/05/12 05:17:24;;;;;;;7.22;6.63;;;;;;;;;;4958554;28;20077;-84
2023/05/12 05:19:52;;;;;;;7.22;6.57;;;;;;;;;;4960227;28;20062;-85
2023/05/12 05:22:25;;;;;;;7.18;6.57;;;;;;;;;;4960606;28;20046;-84
2023/05/12 05:24:52;;;;;;;7.43;6.78;;;;;;;;;;4960081;28;20069;-84
2023/05/12 05:27:19;;;;;;;7.50;6.50;;;;;;;;;;4976711;28;20138;-84
2023/05/12 05:29:48;;;;;;;6.72;5.95;;;;;;;;;;4977063;28;20059;-85
2023/05/12 05:32:15;;;;;;;7.93;6.85;;;;;;;;;;4976639;28;20144;-84
2023/05/12 05:34:42;;;;;;;7.40;6.70;;;;;;;;;;4959575;28;20051;-84
2023/05/12 05:37:10;;;;;;;8.57;7.13;;;;;;;;;;4959657;28;20238;-84
2023/05/12 05:39:37;;;;;;;12.38;7.82;;;;;;;;;;4959553;28;20059;-84
2023/05/12 05:42:04;;;;;;;9.20;7.53;;;;;;;;;;4959445;28;20471;-84
2023/05/12 05:44:32;;;;;;;9.50;6.78;;;;;;;;;;4959423;28;20092;-84
2023/05/12 05:47:00;;;;;;;7.60;6.93;;;;;;;;;;4959832;28;20407;-85
2023/05/12 05:49:27;;;;;;;7.68;6.55;;;;;;;;;;4959487;28;20161;-84
2023/05/12 05:51:54;;;;;;;8.88;7.32;;;;;;;;;;4976283;28;20051;-84
2023/05/12 05:54:24;;;;;;;12.07;7.55;;;;;;;;;;4976254;28;20487;-84
2023/05/12 05:56:52;;;;;;;12.93;8.20;;;;;;;;;;4959313;28;20541;-84
2023/05/12 05:59:19;;;;;;;13.60;8.10;;;;;;;;;;4959691;28;20055;-84
2023/05/12 06:01:46;;;;;;;8.93;6.50;;;;;;;;;;4976622;28;20051;-84
2023/05/12 06:04:13;;;;;;;6.55;6.00;;;;;;;;;;4976065;28;20050;-84
2023/05/12 06:06:41;;;;;;;11.68;6.68;;;;;;;;;;4958815;28;20047;-84
2023/05/12 06:09:11;;;;;;;7.60;6.80;;;;;;;;;;4957489;28;20496;-84
2023/05/12 06:11:38;;;;;;;12.27;6.72;;;;;;;;;;4976539;28;20082;-85
2023/05/12 06:14:05;;;;;;;8.70;7.40;;;;;;;;;;4958133;28;20471;-85
2023/05/12 06:16:32;;;;;;;6.05;5.43;;;;;;;;;;4975583;28;20403;-85
2023/05/12 06:19:00;;;;;;;5.15;4.72;;;;;;;;;;4975935;28;20511;-85
2023/05/12 06:21:27;;;;;;;5.20;4.80;;;;;;;;;;4962214;28;20046;-84
2023/05/12 06:23:57;;;;;;;8.80;5.30;;;;;;;;;;4961440;28;20054;-84
2023/05/12 06:26:24;;;;;;;5.15;4.65;;;;;;;;;;4958773;28;20053;-84
2023/05/12 06:28:51;;;;;;;5.15;4.68;;;;;;;;;;4958747;28;20047;-84
2023/05/12 06:31:18;;;;;;;5.32;5.00;;;;;;;;;;4976027;28;20057;-84
2023/05/12 06:33:46;;;;;;;26.00;21.63;;;;;;;;;;4975435;28;20392;-84
2023/05/12 06:36:13;;;;;;;21.42;11.43;;;;;;;;;;4975805;28;20097;-84
2023/05/12 06:38:40;;;;;;;9.68;6.53;;;;;;;;;;4958386;28;20495;-85
2023/05/12 06:41:07;;;;;;;18.40;8.05;;;;;;;;;;4958896;28;20088;-85
2023/05/12 06:43:35;;;;;;;11.25;7.78;;;;;;;;;;4958441;28;20529;-84
2023/05/12 06:46:02;;;;;;;23.70;7.22;;;;;;;;;;4975616;28;20054;-84
2023/05/12 06:48:29;;;;;;;18.58;9.43;;;;;;;;;;4975390;28;20085;-84
2023/05/12 06:50:56;;;;;;;18.58;7.40;;;;;;;;;;4958428;28;20191;-84
2023/05/12 06:53:23;;;;;;;24.20;7.30;;;;;;;;;;4958530;28;20051;-85
2023/05/12 06:55:52;;;;;;;21.95;5.60;;;;;;;;;;4959120;28;20053;-84
2023/05/12 06:58:20;;;;;;;13.55;5.15;;;;;;;;;;4958426;28;20043;-84
2023/05/12 07:00:50;;;;;;;8.55;5.78;;;;;;;;;;4958741;28;20054;-85
2023/05/12 07:03:18;;;;;;;9.23;4.88;;;;;;;;;;4957981;28;20051;-85
2023/05/12 07:05:45;;;;;;;4.82;4.30;;;;;;;;;;4958018;28;20058;-85
2023/05/12 07:08:12;;;;;;;12.30;3.92;;;;;;;;;;4958052;28;20062;-84
2023/05/12 07:10:39;;;;;;;6.97;3.83;;;;;;;;;;4958563;28;20517;-85
2023/05/12 07:13:06;;;;;;;4.78;4.20;;;;;;;;;;4958010;28;20070;-84
2023/05/12 07:15:34;;;;;;;4.82;3.85;;;;;;;;;;4957973;28;20133;-85
2023/05/12 07:18:04;;;;;;;7.38;4.30;;;;;;;;;;4958385;28;20069;-84
2023/05/12 07:20:31;;;;;;;9.05;4.00;;;;;;;;;;4958807;28;20055;-85
2023/05/12 07:22:58;;;;;;;7.15;3.63;;;;;;;;;;4958278;28;20046;-84
2023/05/12 07:25:27;;;;;;;6.47;3.97;;;;;;;;;;4974887;28;20455;-85
2023/05/12 07:27:54;;;;;;;9.50;3.78;;;;;;;;;;4957893;28;20054;-85
2023/05/12 07:30:21;;;;;;;6.28;3.95;;;;;;;;;;4957536;28;20484;-85
2023/05/12 07:32:49;;;;;;;5.40;4.13;;;;;;;;;;4974771;28;20050;-85
2023/05/12 07:35:17;;;;;;;5.30;3.55;;;;;;;;;;4957449;28;20054;-84
2023/05/12 07:37:44;;;;;;;5.97;3.58;;;;;;;;;;4959735;28;20139;-85
2023/05/12 07:40:12;;;;;;;5.68;3.45;;;;;;;;;;4973734;28;20051;-84
2023/05/12 07:42:39;;;;;;;7.30;3.25;;;;;;;;;;4974199;28;20494;-84
2023/05/12 07:45:06;;;;;;;2.92;2.70;;;;;;;;;;4974387;28;20051;-84
2023/05/12 07:47:33;;;;;;;4.78;3.28;;;;;;;;;;4957449;28;20051;-84
2023/05/12 07:50:01;;;;;;;4.22;2.97;;;;;;;;;;4957457;28;20101;-84
2023/05/12 07:52:28;;;;;;;3.55;3.25;;;;;;;;;;4957252;28;20059;-84
2023/05/12 07:54:56;;;;;;;5.20;2.80;;;;;;;;;;4974125;28;20133;-84
2023/05/12 07:57:23;;;;;;;4.35;2.80;;;;;;;;;;4974179;28;20043;-85
2023/05/12 07:59:51;;;;;;;4.60;2.85;;;;;;;;;;4957057;28;20059;-85
2023/05/12 08:02:19;;;;;;;3.22;2.65;;;;;;;;;;4957089;28;20051;-85
2023/05/12 08:04:46;;;;;;;4.75;2.85;;;;;;;;;;4974156;28;20393;-84
2023/05/12 08:07:14;;;;;;;6.68;3.35;;;;;;;;;;4974349;28;20127;-85
2023/05/12 08:09:41;;;;;;;16.58;3.53;;;;;;;;;;4957306;28;20051;-85
2023/05/12 08:12:09;;;;;;;9.13;2.70;;;;;;;;;;4974306;28;20141;-85
2023/05/12 08:14:36;;;;;;;5.68;2.78;;;;;;;;;;4957106;28;20051;-85
2023/05/12 08:17:03;;;;;;;3.65;2.90;;;;;;;;;;4957378;28;20501;-85
2023/05/12 08:19:31;;;;;;;3.40;3.00;;;;;;;;;;4957244;28;20127;-84
2023/05/12 08:21:58;;;;;;;5.72;2.58;;;;;;;;;;4974286;28;20127;-85
2023/05/12 08:24:26;;;;;;;2.70;2.50;;;;;;;;;;4957090;28;20384;-84
2023/05/12 08:26:53;;;;;;;3.00;2.72;;;;;;;;;;4957258;28;20483;-84
2023/05/12 08:29:20;;;;;;;2.63;2.50;;;;;;;;;;4957285;28;20064;-85
2023/05/12 08:31:47;;;;;;;7.80;2.85;;;;;;;;;;4957131;28;20429;-84
2023/05/12 08:34:14;;;;;;;5.45;2.55;;;;;;;;;;4956814;28;20051;-82
2023/05/12 08:36:42;;;;;;;6.43;2.40;;;;;;;;;;4957028;28;20518;-83
2023/05/12 08:39:09;;;;;;;5.68;3.03;;;;;;;;;;4956923;28;20063;-83
2023/05/12 08:41:42;;;;;;;3.63;2.40;;;;;;;;;;4974054;28;20051;-82
2023/05/12 08:44:10;;;;;;;3.08;2.70;;;;;;;;;;4957028;28;20483;-83
2023/05/12 08:46:38;;;;;;;3.00;2.40;;;;;;;;;;4956882;28;20065;-83
2023/05/12 08:49:06;;;;;;;2.25;2.13;;;;;;;;;;4957011;28;20050;-85
2023/05/12 08:51:36;;;;;;;4.75;2.33;;;;;;;;;;4959623;28;20054;-84
2023/05/12 08:54:03;;;;;;;2.75;2.10;;;;;;;;;;4960917;28;20047;-85
2023/05/12 08:56:31;;;;;;;2.05;1.95;;;;;;;;;;4960632;28;20467;-82
2023/05/12 08:59:04;;;;;;;2.97;2.20;;;;;;;;;;4961189;28;20403;-83
2023/05/12 09:01:32;;;;;;;2.75;2.10;;;;;;;;;;4960211;28;20063;-83
2023/05/12 09:04:04;;;;;;;3.15;2.58;;;;;;;;;;4961001;28;20067;-84
2023/05/12 09:06:32;;;;;;;5.05;2.45;;;;;;;;;;4960654;28;20053;-83
2023/05/12 09:08:59;;;;;;;3.42;2.00;;;;;;;;;;4960674;28;20452;-83
2023/05/12 09:11:27;;;;;;;2.30;2.10;;;;;;;;;;4960447;28;20054;-83
2023/05/12 09:13:59;;;;;;;4.47;2.25;;;;;;;;;;4977353;28;20133;-82
2023/05/12 09:16:28;;;;;;;5.57;2.10;;;;;;;;;;4960288;28;20091;-86
2023/05/12 09:18:56;;;;;;;4.20;1.92;;;;;;;;;;4960633;28;20047;-85
2023/05/12 09:21:25;;;;;;;3.08;1.60;;;;;;;;;;4960963;28;20154;-85
2023/05/12 09:23:53;;;;;;;4.53;1.98;;;;;;;;;;4960813;28;20117;-84
2023/05/12 09:26:21;;;;;;;4.53;1.98;;;;;;;;;;4960385;28;20411;-83
2023/05/12 09:28:49;;;;;;;2.03;1.80;;;;;;;;;;4960191;28;20059;-83
2023/05/12 09:31:22;;;;;;;2.13;1.50;;;;;;;;;;4959774;28;20059;-83
2023/05/12 09:33:50;;;;;;;6.63;2.25;;;;;;;;;;4959940;28;20488;-82
2023/05/12 09:36:21;;;;;;;3.88;1.70;;;;;;;;;;4959516;28;20500;-83
2023/05/12 09:39:03;;;;;;;2.30;2.10;;;;;;;;;;4959944;28;20487;-83
2023/05/12 09:41:41;;;;;;;4.82;2.60;;;;;;;;;;4959611;28;20551;-85
2023/05/12 09:44:10;;;;;;;5.88;2.40;;;;;;;;;;4959963;28;20051;-82
2023/05/12 09:46:38;;;;;;;4.18;2.35;;;;;;;;;;4959710;28;20587;-83
2023/05/12 09:49:06;;;;;;;1.77;1.67;;;;;;;;;;4959720;28;20154;-83
2023/05/12 09:51:33;;;;;;;3.97;1.67;;;;;;;;;;4959513;28;20058;-82
2023/05/12 09:54:01;;;;;;;4.78;1.98;;;;;;;;;;4959562;28;20061;-84
2023/05/12 09:56:28;;;;;;;6.28;2.33;;;;;;;;;;4959584;28;20051;-84
2023/05/12 09:58:56;;;;;;;4.18;2.20;;;;;;;;;;4959983;28;20476;-82
2023/05/12 10:01:24;;;;;;;3.88;2.70;;;;;;;;;;4959527;28;20058;-83
2023/05/12 10:03:53;;;;;;;5.85;3.55;;;;;;;;;;4959060;28;20141;-84
2023/05/12 10:06:24;;;;;;;6.00;3.00;;;;;;;;;;4960347;28;20081;-83
2023/05/12 10:09:12;;;;;;;5.30;3.03;;;;;;;;;;4962952;28;20061;-83
2023/05/12 10:11:40;;;;;;;4.53;4.20;;;;;;;;;;4960114;28;20042;-83
2023/05/12 10:14:08;;;;;;;6.85;3.92;;;;;;;;;;4977357;28;20483;-84
2023/05/12 10:16:36;;;;;;;4.38;3.97;;;;;;;;;;4959683;28;20586;-84
2023/05/12 10:19:03;;;;;;;5.18;4.40;;;;;;;;;;4960078;28;20059;-83
2023/05/12 10:21:31;;;;;;;6.22;3.78;;;;;;;;;;4960869;28;20051;-84
2023/05/12 10:23:58;;;;;;;4.35;3.95;;;;;;;;;;4977481;28;20133;-86
2023/05/12 10:26:26;;;;;;;4.97;4.57;;;;;;;;;;4960229;28;20142;-85
2023/05/12 10:28:53;;;;;;;4.72;4.22;;;;;;;;;;4959361;28;20063;-85
2023/05/12 10:31:21;;;;;;;6.72;4.88;;;;;;;;;;4959356;28;20057;-85
2023/05/12 10:33:58;;;;;;;6.65;4.22;;;;;;;;;;4959346;28;20062;-85
2023/05/12 10:36:25;;;;;;;9.18;4.72;;;;;;;;;;4976380;28;20621;-85
2023/05/12 10:38:53;;;;;;;6.22;5.05;;;;;;;;;;4959470;28;20413;-85
2023/05/12 10:41:31;;;;;;;6.00;4.07;;;;;;;;;;4959346;28;20069;-85
2023/05/12 10:43:58;;;;;;;10.80;3.90;;;;;;;;;;4959126;28;20047;-85
2023/05/12 10:46:26;;;;;;;4.28;3.97;;;;;;;;;;4959335;28;20153;-85
2023/05/12 10:48:58;;;;;;;4.35;3.92;;;;;;;;;;4959199;28;20054;-85
2023/05/12 10:51:27;;;;;;;5.38;3.50;;;;;;;;;;4959586;28;20093;-85
2023/05/12 10:53:59;;;;;;;4.30;3.85;;;;;;;;;;4959047;28;20077;-85
2023/05/12 10:56:30;;;;;;;5.53;3.40;;;;;;;;;;4958602;28;20051;-85
2023/05/12 10:59:17;;;;;;;5.22;3.00;;;;;;;;;;4959226;28;20484;-85
2023/05/12 11:02:00;;;;;;;3.10;2.80;;;;;;;;;;4957867;28;20440;-85
2023/05/12 11:04:41;;;;;;;4.30;2.70;;;;;;;;;;4958684;28;20051;-85
2023/05/12 11:07:11;;;;;;;3.30;3.10;;;;;;;;;;4958981;28;20061;-85
2023/05/12 11:09:41;;;;;;;3.42;3.13;;;;;;;;;;4958860;28;20047;-85
2023/05/12 11:12:25;;;;;;;5.78;3.50;;;;;;;;;;4975984;28;20055;-85
2023/05/12 11:14:53;;;;;;;4.13;3.25;;;;;;;;;;4958114;28;20061;-86
2023/05/12 11:17:20;;;;;;;3.22;3.00;;;;;;;;;;4959194;28;20054;-85
2023/05/12 11:19:48;;;;;;;4.93;3.50;;;;;;;;;;4976225;28;20093;-85
2023/05/12 11:22:21;;;;;;;5.40;3.30;;;;;;;;;;4976565;28;20495;-86
2023/05/12 11:24:49;;;;;;;4.88;3.30;;;;;;;;;;4959037;28;20058;-86
2023/05/12 11:27:17;;;;;;;3.88;3.00;;;;;;;;;;4958613;28;20518;-85
2023/05/12 11:29:54;;;;;;;11.95;3.95;;;;;;;;;;4958733;28;20141;-85
2023/05/12 11:32:22;;;;;;;5.20;2.80;;;;;;;;;;4959038;28;20484;-85
2023/05/12 11:34:49;;;;;;;7.55;2.90;;;;;;;;;;4976036;28;20047;-86
2023/05/12 11:37:19;;;;;;;5.35;2.72;;;;;;;;;;4958828;28;20058;-85
2023/05/12 11:39:47;;;;;;;7.60;3.10;;;;;;;;;;4958799;28;20057;-86
2023/05/12 11:42:14;;;;;;;5.70;3.10;;;;;;;;;;4958590;28;20058;-86
2023/05/12 11:44:49;;;;;;;8.85;3.33;;;;;;;;;;4959063;28;20435;-85
2023/05/12 11:47:17;;;;;;;5.97;2.97;;;;;;;;;;4957894;28;20051;-86
2023/05/12 11:49:52;;;;;;;6.18;3.00;;;;;;;;;;4958055;28;20443;-86
2023/05/12 11:52:20;;;;;;;3.35;2.58;;;;;;;;;;4958011;28;20054;-86
2023/05/12 11:54:56;;;;;;;4.10;3.10;;;;;;;;;;4958707;28;20078;-85
2023/05/12 11:57:27;;;;;;;3.10;2.70;;;;;;;;;;4957891;28;20051;-86
2023/05/12 12:00:05;;;;;;;4.97;2.78;;;;;;;;;;4957720;28;20074;-86
2023/05/12 12:02:34;;;;;;;4.47;2.60;;;;;;;;;;4957871;28;20575;-85
2023/05/12 12:05:02;;;;;;;4.68;2.70;;;;;;;;;;4957513;28;20137;-85
2023/05/12 12:07:30;;;;;;;3.95;2.95;;;;;;;;;;4957617;28;20047;-85
2023/05/12 12:09:58;;;;;;;6.18;2.85;;;;;;;;;;4957612;28;20140;-85
2023/05/12 12:12:25;;;;;;;3.47;2.53;;;;;;;;;;4958089;28;20054;-85
2023/05/12 12:14:55;;;;;;;3.55;2.45;;;;;;;;;;4957865;28;20555;-85
2023/05/12 12:17:29;;;;;;;3.35;2.60;;;;;;;;;;4975137;28;20054;-86
2023/05/12 12:19:57;;;;;;;6.57;2.65;;;;;;;;;;4958259;28;20059;-85
2023/05/12 12:22:24;;;;;;;3.60;2.60;;;;;;;;;;4958115;28;20404;-86
2023/05/12 12:24:52;;;;;;;3.08;2.75;;;;;;;;;;4957899;28;20050;-85
2023/05/12 12:27:19;;;;;;;3.85;2.38;;;;;;;;;;4958606;28;20488;-86
2023/05/12 12:29:48;;;;;;;3.92;2.42;;;;;;;;;;4958893;28;20519;-85
2023/05/12 12:32:16;;;;;;;2.65;2.45;;;;;;;;;;4958173;28;20134;-85
2023/05/12 12:34:47;;;;;;;2.45;2.33;;;;;;;;;;4958527;28;20055;-85
2023/05/12 12:37:16;;;;;;;2.70;2.25;;;;;;;;;;4963586;28;20053;-86
2023/05/12 12:39:43;;;;;;;4.95;2.25;;;;;;;;;;4960094;28;20411;-84
2023/05/12 12:42:10;;;;;;;4.65;2.28;;;;;;;;;;4974422;28;20065;-86
2023/05/12 12:44:39;;;;;;;2.45;2.22;;;;;;;;;;4958406;28;20063;-86
2023/05/12 12:47:07;;;;;;;4.07;2.47;;;;;;;;;;4957946;28;20046;-85
2023/05/12 12:49:34;;;;;;;3.20;2.50;;;;;;;;;;4958426;28;20059;-83
2023/05/12 12:52:02;;;;;;;7.47;3.50;;;;;;;;;;4976022;28;20051;-85
2023/05/12 12:54:29;;;;;;;3.20;3.00;;;;;;;;;;4958565;28;20053;-85
2023/05/12 12:56:57;;;;;;;6.38;3.00;;;;;;;;;;4974745;28;20442;-85
2023/05/12 12:59:25;;;;;;;6.13;3.53;;;;;;;;;;4974546;28;20085;-85
2023/05/12 13:01:53;;;;;;;4.60;3.10;;;;;;;;;;4957005;28;20158;-85
2023/05/12 13:04:21;;;;;;;4.90;2.88;;;;;;;;;;4956858;28;20085;-84
2023/05/12 13:06:49;;;;;;;9.65;3.50;;;;;;;;;;4956760;28;20055;-84
2023/05/12 13:09:17;;;;;;;9.82;3.50;;;;;;;;;;4956784;28;20051;-84
2023/05/12 13:11:46;;;;;;;4.18;3.05;;;;;;;;;;4974044;28;20138;-85
2023/05/12 13:14:13;;;;;;;4.40;2.83;;;;;;;;;;4956831;28;20412;-84
2023/05/12 13:16:40;;;;;;;4.40;2.72;;;;;;;;;;4957484;28;20050;-84
2023/05/12 13:19:12;;;;;;;4.15;2.75;;;;;;;;;;4958917;28;20085;-85
2023/05/12 13:21:40;;;;;;;3.45;2.42;;;;;;;;;;4975078;28;20054;-86
2023/05/12 13:24:07;;;;;;;16.88;3.53;;;;;;;;;;4957698;28;20058;-85
2023/05/12 13:26:35;;;;;;;4.63;2.20;;;;;;;;;;4974342;28;20077;-85
2023/05/12 13:29:03;;;;;;;4.22;2.60;;;;;;;;;;4975109;28;20050;-84
2023/05/12 13:31:30;;;;;;;3.17;2.00;;;;;;;;;;4957567;28;20466;-85
2023/05/12 13:33:57;;;;;;;2.58;2.15;;;;;;;;;;4956770;28;20047;-85
2023/05/12 13:36:25;;;;;;;4.47;2.40;;;;;;;;;;4973688;28;20095;-84
2023/05/12 13:38:53;;;;;;;11.98;3.55;;;;;;;;;;4959532;28;20089;-85
2023/05/12 13:41:20;;;;;;;4.15;2.33;;;;;;;;;;4960473;28;20055;-85
2023/05/12 13:43:47;;;;;;;3.35;2.60;;;;;;;;;;4960336;28;20047;-85
2023/05/12 13:46:14;;;;;;;8.93;2.53;;;;;;;;;;4977703;28;20058;-86
2023/05/12 13:48:42;;;;;;;5.20;4.75;;;;;;;;;;4978199;28;20562;-85
2023/05/12 13:51:09;;;;;;;3.70;3.00;;;;;;;;;;4978786;28;20094;-85
2023/05/12 13:53:38;;;;;;;4.70;3.38;;;;;;;;;;4965957;28;20412;-85
2023/05/12 13:56:06;;;;;;;28.75;16.35;;;;;;;;;;4977328;28;20154;-85
2023/05/12 13:58:33;;;;;;;84.10;43.28;;;;;;;;;;4960174;28;20070;-84
2023/05/12 14:01:00;;;;;;;25.35;13.07;;;;;;;;;;4956174;29;20389;-85
2023/05/12 14:03:28;;;;;;;71.80;31.63;;;;;;;;;;4957151;29;20114;-84
2023/05/12 14:05:55;;;;;;;53.70;25.52;;;;;;;;;;4955880;29;20063;-85
2023/05/12 14:08:22;;;;;;;5.50;3.92;;;;;;;;;;4956270;29;20051;-85
2023/05/12 14:10:49;;;;;;;8.20;4.13;;;;;;;;;;4956094;29;20547;-85
2023/05/12 14:13:16;;;;;;;25.27;12.00;;;;;;;;;;4955879;29;20055;-85
2023/05/12 14:15:44;;;;;;;13.00;8.13;;;;;;;;;;4955992;29;20055;-85
2023/05/12 14:18:16;;;;;;;6.25;4.50;;;;;;;;;;4956640;29;20051;-85
2023/05/12 14:20:44;;;;;;;4.80;4.20;;;;;;;;;;4956036;29;20062;-85
2023/05/12 14:23:11;;;;;;;60.53;25.65;;;;;;;;;;4956173;29;20047;-85
2023/05/12 14:25:38;;;;;;;5.38;4.45;;;;;;;;;;4956217;29;20052;-85
2023/05/12 14:28:05;;;;;;;11.57;4.85;;;;;;;;;;4956440;29;20090;-85
2023/05/12 14:30:36;;;;;;;46.35;17.27;;;;;;;;;;4956606;29;20050;-86
2023/05/12 14:33:03;;;;;;;34.88;15.98;;;;;;;;;;4957186;28;20412;-86
2023/05/12 14:35:31;;;;;;;313.92;153.23;;;;;;;;;;4955710;29;20506;-86
2023/05/12 14:37:58;;;;;;;23.73;11.98;;;;;;;;;;4955972;29;20047;-86
2023/05/12 14:40:26;;;;;;;124.25;50.70;;;;;;;;;;4956099;29;20055;-86
2023/05/12 14:42:54;;;;;;;42.25;18.50;;;;;;;;;;4955941;29;20476;-86
2023/05/12 14:45:21;;;;;;;10.35;5.10;;;;;;;;;;4955944;29;20094;-86
2023/05/12 14:47:49;;;;;;;8.30;5.20;;;;;;;;;;4955937;28;20055;-86
2023/05/12 14:50:17;;;;;;;13.13;7.90;;;;;;;;;;4956639;29;20138;-86
2023/05/12 14:52:45;;;;;;;38.78;16.83;;;;;;;;;;4956254;29;20043;-85
2023/05/12 14:55:13;;;;;;;4.03;3.53;;;;;;;;;;4956586;29;20055;-85
2023/05/12 14:57:41;;;;;;;3.63;2.45;;;;;;;;;;4955203;29;20055;-85
2023/05/12 15:00:12;;;;;;;2.97;2.78;;;;;;;;;;4962355;28;20062;-85
2023/05/12 15:02:39;;;;;;;3.88;2.70;;;;;;;;;;4975726;28;20051;-85
2023/05/12 15:05:07;;;;;;;4.90;3.63;;;;;;;;;;4958612;28;20047;-85
2023/05/12 15:07:35;;;;;;;15.88;7.18;;;;;;;;;;4958755;28;20135;-85
2023/05/12 15:10:02;;;;;;;13.13;6.50;;;;;;;;;;4975922;28;20046;-86